sensor_id;sensor_type;location;lat;lon;timestamp;pressure;altitude;pressure_sealevel;temperature;humidity
74913;BME280;63878;55.624;37.304;2023-02-28T00:09:33;99435.84;;;-11.17;69.27
74913;BME280;63878;55.624;37.304;2023-02-28T00:19:33;99432.41;;;-11.30;70.20
74913;BME280;63878;55.624;37.304;2023-02-28T00:29:34;99424.81;;;-11.18;70.00
74913;BME280;63878;55.624;37.304;2023-02-28T00:39:36;99406.13;;;-11.20;68.72
74913;BME280;63878;55.624;37.304;2023-02-28T00:49:37;99407.81;;;-11.28;69.86
74913;BME280;63878;55.624;37.304;2023-02-28T00:59:37;99393.38;;;-11.24;68.95
74913;BME280;63878;55.624;37.304;2023-02-28T01:09:38;99386.56;;;-11.25;70.65
74913;BME280;63878;55.624;37.304;2023-02-28T01:19:38;99367.84;;;-11.38;69.94
74913;BME280;63878;55.624;37.304;2023-02-28T01:29:39;99342.44;;;-11.20;68.60
74913;BME280;63878;55.624;37.304;2023-02-28T01:39:39;99340.72;;;-11.19;69.41
74913;BME280;63878;55.624;37.304;2023-02-28T01:49:40;99316.06;;;-11.25;68.54
74913;BME280;63878;55.624;37.304;2023-02-28T01:59:46;99293.94;;;-11.47;69.09
74913;BME280;63878;55.624;37.304;2023-02-28T02:09:48;99292.19;;;-11.56;70.87
74913;BME280;63878;55.624;37.304;2023-02-28T02:40:29;99244.69;;;-11.45;70.15
74913;BME280;63878;55.624;37.304;2023-02-28T02:50:38;99235.34;;;-11.60;70.33
74913;BME280;63878;55.624;37.304;2023-02-28T03:00:47;99226.81;;;-11.71;69.57
74913;BME280;63878;55.624;37.304;2023-02-28T03:10:52;99205.50;;;-12.05;70.92
74913;BME280;63878;55.624;37.304;2023-02-28T03:21:31;99195.34;;;-11.91;71.13
74913;BME280;63878;55.624;37.304;2023-02-28T03:31:40;99172.47;;;-11.88;70.77
74913;BME280;63878;55.624;37.304;2023-02-28T03:41:52;99137.69;;;-11.84;69.07
74913;BME280;63878;55.624;37.304;2023-02-28T03:51:59;99129.19;;;-11.87;69.82
74913;BME280;63878;55.624;37.304;2023-02-28T04:02:01;99117.31;;;-11.88;68.99
74913;BME280;63878;55.624;37.304;2023-02-28T04:12:03;99097.78;;;-11.90;69.41
74913;BME280;63878;55.624;37.304;2023-02-28T04:22:04;99079.13;;;-11.97;69.03
74913;BME280;63878;55.624;37.304;2023-02-28T04:32:04;99085.91;;;-12.06;69.40
74913;BME280;63878;55.624;37.304;2023-02-28T04:42:05;99065.56;;;-11.94;68.25
74913;BME280;63878;55.624;37.304;2023-02-28T04:52:06;99044.34;;;-11.76;67.44
74913;BME280;63878;55.624;37.304;2023-02-28T05:02:06;99025.63;;;-11.28;65.46
74913;BME280;63878;55.624;37.304;2023-02-28T05:12:08;99027.38;;;-11.47;65.74
74913;BME280;63878;55.624;37.304;2023-02-28T05:22:14;98997.59;;;-11.26;65.38
74913;BME280;63878;55.624;37.304;2023-02-28T05:32:15;98959.44;;;-11.40;65.82
74913;BME280;63878;55.624;37.304;2023-02-28T05:42:16;98933.13;;;-11.51;65.55
74913;BME280;63878;55.624;37.304;2023-02-28T05:52:17;98921.25;;;-11.57;65.63
74913;BME280;63878;55.624;37.304;2023-02-28T06:02:18;98891.47;;;-11.34;64.13
74913;BME280;63878;55.624;37.304;2023-02-28T06:12:19;98880.34;;;-11.17;63.78
74913;BME280;63878;55.624;37.304;2023-02-28T06:22:19;98857.38;;;-11.10;62.95
74913;BME280;63878;55.624;37.304;2023-02-28T06:32:20;98851.22;;;-10.78;61.32
74913;BME280;63878;55.624;37.304;2023-02-28T06:42:22;98816.16;;;-10.52;60.51
74913;BME280;63878;55.624;37.304;2023-02-28T06:52:23;98788.78;;;-10.36;60.81
74913;BME280;63878;55.624;37.304;2023-02-28T07:02:24;98770.53;;;-9.98;60.17
74913;BME280;63878;55.624;37.304;2023-02-28T07:12:24;98736.25;;;-9.78;60.60
74913;BME280;63878;55.624;37.304;2023-02-28T07:22:27;98709.09;;;-9.85;61.55
74913;BME280;63878;55.624;37.304;2023-02-28T07:32:28;98706.22;;;-9.62;61.97
74913;BME280;63878;55.624;37.304;2023-02-28T07:42:29;98703.34;;;-9.38;62.25
74913;BME280;63878;55.624;37.304;2023-02-28T07:52:32;98679.94;;;-9.12;62.12
74913;BME280;63878;55.624;37.304;2023-02-28T08:02:32;98656.19;;;-9.19;62.29
74913;BME280;63878;55.624;37.304;2023-02-28T08:12:33;98613.09;;;-8.46;61.11
74913;BME280;63878;55.624;37.304;2023-02-28T08:22:33;98628.09;;;-8.29;60.43
74913;BME280;63878;55.624;37.304;2023-02-28T08:32:34;98615.25;;;-8.26;62.14
74913;BME280;63878;55.624;37.304;2023-02-28T08:42:35;98576.97;;;-7.93;61.29
74913;BME280;63878;55.624;37.304;2023-02-28T08:52:36;98578.16;;;-7.71;61.83
74913;BME280;63878;55.624;37.304;2023-02-28T09:02:38;98599.63;;;-7.77;62.60
74913;BME280;63878;55.624;37.304;2023-02-28T09:12:38;98614.22;;;-7.43;62.97
74913;BME280;63878;55.624;37.304;2023-02-28T09:22:39;98572.06;;;-7.65;64.90
74913;BME280;63878;55.624;37.304;2023-02-28T09:32:40;98562.09;;;-7.78;66.54
74913;BME280;63878;55.624;37.304;2023-02-28T09:42:41;98582.88;;;-7.54;66.70
74913;BME280;63878;55.624;37.304;2023-02-28T09:52:45;98556.72;;;-7.33;65.15
74913;BME280;63878;55.624;37.304;2023-02-28T10:13:03;98480.88;;;-7.41;65.50
74913;BME280;63878;55.624;37.304;2023-02-28T10:23:20;98490.19;;;-7.37;65.42
74913;BME280;63878;55.624;37.304;2023-02-28T10:33:24;98449.16;;;-7.37;65.64
74913;BME280;63878;55.624;37.304;2023-02-28T10:43:25;98454.19;;;-7.33;66.43
74913;BME280;63878;55.624;37.304;2023-02-28T11:03:32;98454.03;;;-7.27;67.10
74913;BME280;63878;55.624;37.304;2023-02-28T11:13:35;98403.34;;;-7.18;67.21
74913;BME280;63878;55.624;37.304;2023-02-28T11:23:40;98398.63;;;-7.32;68.12
74913;BME280;63878;55.624;37.304;2023-02-28T11:33:53;98404.38;;;-7.24;69.07
74913;BME280;63878;55.624;37.304;2023-02-28T12:04:37;98382.44;;;-7.05;69.68
74913;BME280;63878;55.624;37.304;2023-02-28T12:35:02;98358.56;;;-7.07;72.24
74913;BME280;63878;55.624;37.304;2023-02-28T13:15:40;98287.25;;;-6.96;74.28
74913;BME280;63878;55.624;37.304;2023-02-28T13:35:44;98249.91;;;-6.78;73.49
74913;BME280;63878;55.624;37.304;2023-02-28T13:46:14;98252.63;;;-6.82;74.13
74913;BME280;63878;55.624;37.304;2023-02-28T13:56:30;98228.44;;;-7.02;74.34
74913;BME280;63878;55.624;37.304;2023-02-28T14:06:32;98228.22;;;-6.69;73.78
74913;BME280;63878;55.624;37.304;2023-02-28T14:16:40;98226.22;;;-6.59;74.97
74913;BME280;63878;55.624;37.304;2023-02-28T14:37:03;98207.84;;;-6.24;74.78
74913;BME280;63878;55.624;37.304;2023-02-28T14:47:14;98187.25;;;-6.47;76.70
74913;BME280;63878;55.624;37.304;2023-02-28T14:57:27;98166.38;;;-6.61;77.04
74913;BME280;63878;55.624;37.304;2023-02-28T15:07:29;98176.34;;;-6.52;78.29
74913;BME280;63878;55.624;37.304;2023-02-28T15:17:29;98164.84;;;-6.42;78.22
74913;BME280;63878;55.624;37.304;2023-02-28T15:27:32;98167.81;;;-6.53;79.22
74913;BME280;63878;55.624;37.304;2023-02-28T15:37:39;98161.56;;;-6.46;79.33
74913;BME280;63878;55.624;37.304;2023-02-28T15:47:45;98153.44;;;-6.33;78.69
74913;BME280;63878;55.624;37.304;2023-02-28T15:57:48;98146.06;;;-6.19;78.24
74913;BME280;63878;55.624;37.304;2023-02-28T16:07:51;98158.06;;;-6.20;78.21
74913;BME280;63878;55.624;37.304;2023-02-28T16:17:52;98135.66;;;-6.16;79.39
74913;BME280;63878;55.624;37.304;2023-02-28T16:27:54;98137.91;;;-6.07;77.87
74913;BME280;63878;55.624;37.304;2023-02-28T16:37:55;98129.94;;;-5.77;77.94
74913;BME280;63878;55.624;37.304;2023-02-28T16:47:57;98139.09;;;-5.94;77.45
74913;BME280;63878;55.624;37.304;2023-02-28T16:57:59;98105.13;;;-5.78;77.52
74913;BME280;63878;55.624;37.304;2023-02-28T17:08:01;98092.63;;;-5.88;76.85
74913;BME280;63878;55.624;37.304;2023-02-28T17:18:03;98083.50;;;-5.73;76.55
74913;BME280;63878;55.624;37.304;2023-02-28T17:28:03;98085.94;;;-5.70;77.44
74913;BME280;63878;55.624;37.304;2023-02-28T17:38:04;98078.50;;;-5.56;76.35
74913;BME280;63878;55.624;37.304;2023-02-28T17:48:05;98104.25;;;-5.35;74.54
74913;BME280;63878;55.624;37.304;2023-02-28T17:58:09;98100.69;;;-5.31;73.16
74913;BME280;63878;55.624;37.304;2023-02-28T18:08:12;98099.69;;;-5.07;70.83
74913;BME280;63878;55.624;37.304;2023-02-28T18:18:14;98108.66;;;-5.17;69.30
74913;BME280;63878;55.624;37.304;2023-02-28T18:28:15;98114.00;;;-5.21;68.15
74913;BME280;63878;55.624;37.304;2023-02-28T18:38:17;98134.06;;;-5.51;68.07
74913;BME280;63878;55.624;37.304;2023-02-28T18:48:17;98117.13;;;-6.24;68.17
74913;BME280;63878;55.624;37.304;2023-02-28T18:58:18;98151.78;;;-6.36;62.30
74913;BME280;63878;55.624;37.304;2023-02-28T19:08:18;98148.50;;;-6.40;58.10
74913;BME280;63878;55.624;37.304;2023-02-28T19:18:18;98160.03;;;-6.26;55.46
74913;BME280;63878;55.624;37.304;2023-02-28T19:28:19;98168.84;;;-6.33;54.59
74913;BME280;63878;55.624;37.304;2023-02-28T19:38:19;98158.31;;;-6.27;54.09
74913;BME280;63878;55.624;37.304;2023-02-28T19:48:20;98143.88;;;-6.06;54.71
74913;BME280;63878;55.624;37.304;2023-02-28T19:58:21;98156.72;;;-6.30;55.89
74913;BME280;63878;55.624;37.304;2023-02-28T20:08:22;98135.00;;;-6.45;56.07
74913;BME280;63878;55.624;37.304;2023-02-28T20:18:22;98150.81;;;-6.32;55.47
74913;BME280;63878;55.624;37.304;2023-02-28T20:28:23;98155.94;;;-6.82;51.58
74913;BME280;63878;55.624;37.304;2023-02-28T20:38:23;98141.03;;;-6.96;49.54
74913;BME280;63878;55.624;37.304;2023-02-28T20:48:24;98143.97;;;-6.81;47.76
74913;BME280;63878;55.624;37.304;2023-02-28T20:58:26;98120.56;;;-6.97;47.74
74913;BME280;63878;55.624;37.304;2023-02-28T21:08:28;98152.50;;;-6.81;47.76
74913;BME280;63878;55.624;37.304;2023-02-28T21:18:28;98156.28;;;-7.17;46.67
74913;BME280;63878;55.624;37.304;2023-02-28T21:28:30;98167.19;;;-7.37;45.24
74913;BME280;63878;55.624;37.304;2023-02-28T21:38:31;98180.69;;;-7.32;44.25
74913;BME280;63878;55.624;37.304;2023-02-28T21:48:32;98189.09;;;-7.27;43.87
74913;BME280;63878;55.624;37.304;2023-02-28T21:58:36;98188.97;;;-7.24;44.66
74913;BME280;63878;55.624;37.304;2023-02-28T22:08:38;98189.81;;;-7.24;45.43
74913;BME280;63878;55.624;37.304;2023-02-28T22:18:40;98185.91;;;-7.35;45.34
74913;BME280;63878;55.624;37.304;2023-02-28T22:28:41;98177.78;;;-7.22;45.89
74913;BME280;63878;55.624;37.304;2023-02-28T22:38:42;98187.03;;;-7.44;45.05
74913;BME280;63878;55.624;37.304;2023-02-28T22:48:43;98184.34;;;-7.13;45.63
74913;BME280;63878;55.624;37.304;2023-02-28T22:58:49;98193.56;;;-7.34;45.15
74913;BME280;63878;55.624;37.304;2023-02-28T23:08:52;98176.38;;;-7.58;46.51
74913;BME280;63878;55.624;37.304;2023-02-28T23:18:53;98174.66;;;-7.58;46.45
74913;BME280;63878;55.624;37.304;2023-02-28T23:28:55;98174.00;;;-7.64;47.08
74913;BME280;63878;55.624;37.304;2023-02-28T23:38:56;98170.88;;;-7.74;47.08
74913;BME280;63878;55.624;37.304;2023-02-28T23:48:57;98165.78;;;-7.76;47.14
74913;BME280;63878;55.624;37.304;2023-02-28T23:58:58;98165.16;;;-8.12;48.26
